createdAt,value
2023-04-17T00:00:17.546Z,101176.26
2023-04-17T00:02:46.695Z,101173.42
2023-04-17T00:05:16.895Z,101164.99
2023-04-17T00:07:46.601Z,101168.16
2023-04-17T00:10:14.906Z,101166.55
2023-04-17T00:12:43.219Z,101174.35
2023-04-17T00:15:11.429Z,101174.79
2023-04-17T00:17:40.011Z,101173.79
2023-04-17T00:20:11.420Z,101173.78
2023-04-17T00:22:39.847Z,101173.55
2023-04-17T00:25:10.523Z,101171.71
2023-04-17T00:27:38.810Z,101169.95
2023-04-17T00:30:07.851Z,101169.75
2023-04-17T00:32:38.030Z,101174.46
2023-04-17T00:35:07.117Z,101175.06
2023-04-17T00:37:36.283Z,101174.15
2023-04-17T00:40:05.056Z,101174.19
2023-04-17T00:42:33.482Z,101177.02
2023-04-17T00:45:01.711Z,101173.92
2023-04-17T00:47:30.896Z,101177.05
2023-04-17T00:49:59.177Z,101171.55
2023-04-17T00:52:29.933Z,101174.75
2023-04-17T00:54:58.307Z,101174.48
2023-04-17T00:57:26.599Z,101177.67
2023-04-17T00:59:56.412Z,101175.60
2023-04-17T01:02:25.058Z,101174.10
2023-04-17T01:04:53.506Z,101173.27
2023-04-17T01:07:21.608Z,101172.20
2023-04-17T01:09:49.724Z,101171.86
2023-04-17T01:12:22.353Z,101171.86
2023-04-17T01:14:51.631Z,101171.13
2023-04-17T01:17:20.619Z,101167.61
2023-04-17T01:19:49.475Z,101167.08
2023-04-17T01:22:17.735Z,101168.00
2023-04-17T01:24:46.069Z,101164.42
2023-04-17T01:27:15.000Z,101163.39
2023-04-17T01:29:44.873Z,101168.30
2023-04-17T01:32:13.088Z,101165.92
2023-04-17T01:34:41.521Z,101164.24
2023-04-17T01:37:10.009Z,101169.44
2023-04-17T01:39:38.393Z,101171.39
2023-04-17T01:42:07.180Z,101173.22
2023-04-17T01:44:37.655Z,101168.58
2023-04-17T01:47:05.979Z,101170.50
2023-04-17T01:49:34.667Z,101169.91
2023-04-17T01:52:03.245Z,101171.27
2023-04-17T01:54:31.643Z,101168.52
2023-04-17T01:57:00.131Z,101163.64
2023-04-17T01:59:28.492Z,101166.23
2023-04-17T02:01:57.426Z,101168.59
2023-04-17T02:04:26.205Z,101171.85
2023-04-17T02:06:54.651Z,101172.60
2023-04-17T02:09:22.870Z,101170.58
2023-04-17T02:11:51.142Z,101169.45
2023-04-17T02:14:20.922Z,101168.70
2023-04-17T02:16:49.028Z,101171.92
2023-04-17T02:19:17.172Z,101169.45
2023-04-17T02:21:45.387Z,101170.65
2023-04-17T02:24:13.528Z,101173.27
2023-04-17T02:26:41.669Z,101175.60
2023-04-17T02:29:10.061Z,101177.38
2023-04-17T02:31:40.913Z,101182.58
2023-04-17T02:34:09.197Z,101183.38
2023-04-17T02:36:37.470Z,101187.06
2023-04-17T02:39:05.989Z,101186.26
2023-04-17T02:41:34.122Z,101188.47
2023-04-17T02:44:03.122Z,101189.88
2023-04-17T02:46:31.742Z,101192.96
2023-04-17T02:48:59.811Z,101189.59
2023-04-17T02:51:28.007Z,101191.27
2023-04-17T02:53:56.109Z,101190.23
2023-04-17T02:56:24.322Z,101189.34
2023-04-17T02:58:52.473Z,101196.36
2023-04-17T03:01:22.168Z,101196.61
2023-04-17T03:03:52.466Z,101198.63
2023-04-17T03:06:21.760Z,101197.66
2023-04-17T03:08:50.066Z,101196.80
2023-04-17T03:11:19.293Z,101196.73
2023-04-17T03:13:47.406Z,101196.63
2023-04-17T03:16:15.774Z,101202.95
2023-04-17T03:18:45.127Z,101204.49
2023-04-17T03:21:13.219Z,101209.11
2023-04-17T03:23:41.594Z,101212.33
2023-04-17T03:26:10.066Z,101213.33
2023-04-17T03:28:38.471Z,101217.02
2023-04-17T03:31:06.724Z,101217.92
2023-04-17T03:33:37.928Z,101217.66
2023-04-17T03:36:06.809Z,101216.52
2023-04-17T03:38:36.142Z,101215.70
2023-04-17T03:41:04.942Z,101217.77
2023-04-17T03:43:33.024Z,101218.60
2023-04-17T03:46:01.855Z,101222.03
2023-04-17T03:48:30.704Z,101222.70
2023-04-17T03:50:58.993Z,101226.24
2023-04-17T03:53:28.006Z,101232.15
2023-04-17T03:55:56.559Z,101235.27
2023-04-17T03:58:28.636Z,101237.39
2023-04-17T04:00:59.036Z,101240.16
2023-04-17T04:03:30.152Z,101240.42
2023-04-17T04:05:58.969Z,101240.38
2023-04-17T04:08:27.086Z,101243.05
2023-04-17T04:10:55.450Z,101243.34
2023-04-17T04:13:29.517Z,101245.18
2023-04-17T04:15:59.318Z,101245.56
2023-04-17T04:18:29.019Z,101244.52
2023-04-17T04:20:57.609Z,101248.24
2023-04-17T04:23:30.709Z,101250.27
2023-04-17T04:26:01.873Z,101252.48
2023-04-17T04:28:38.387Z,101253.46
2023-04-17T04:31:09.868Z,101256.67
2023-04-17T04:33:40.424Z,101252.50
2023-04-17T04:36:08.609Z,101253.46
2023-04-17T04:38:37.893Z,101255.65
2023-04-17T04:41:12.089Z,101258.83
2023-04-17T04:43:40.372Z,101261.42
2023-04-17T04:46:10.793Z,101258.42
2023-04-17T04:48:42.996Z,101259.66
2023-04-17T04:51:11.282Z,101259.84
2023-04-17T04:53:39.786Z,101259.34
2023-04-17T04:56:08.246Z,101261.52
2023-04-17T04:58:38.649Z,101260.71
2023-04-17T05:01:07.780Z,101259.90
2023-04-17T05:03:40.904Z,101260.52
2023-04-17T05:06:11.230Z,101265.63
2023-04-17T05:08:42.240Z,101265.64
2023-04-17T05:11:12.158Z,101270.52
2023-04-17T05:13:40.566Z,101273.58
2023-04-17T05:16:13.536Z,101279.91
2023-04-17T05:18:41.619Z,101285.19
2023-04-17T05:21:10.873Z,101286.15
2023-04-17T05:23:39.347Z,101284.95
2023-04-17T05:26:07.614Z,101288.50
2023-04-17T05:28:35.785Z,101287.20
2023-04-17T05:31:04.626Z,101287.65
2023-04-17T05:33:36.752Z,101289.56
2023-04-17T05:36:07.576Z,101287.98
2023-04-17T05:38:37.789Z,101293.16
2023-04-17T05:41:08.553Z,101295.55
2023-04-17T05:43:38.413Z,101297.54
2023-04-17T05:46:07.503Z,101297.62
2023-04-17T05:48:36.166Z,101301.33
2023-04-17T05:51:04.997Z,101300.64
2023-04-17T05:53:33.876Z,101300.43
2023-04-17T05:56:03.618Z,101299.25
2023-04-17T05:58:36.244Z,101297.86
2023-04-17T06:01:06.467Z,101297.66
2023-04-17T06:03:35.301Z,101299.35
2023-04-17T06:06:08.831Z,101297.80
2023-04-17T06:08:37.663Z,101298.98
2023-04-17T06:11:06.324Z,101301.15
2023-04-17T06:13:35.091Z,101302.96
2023-04-17T06:16:03.143Z,101301.81
2023-04-17T06:18:31.263Z,101301.66
2023-04-17T06:20:59.292Z,101300.77
2023-04-17T06:23:29.130Z,101301.95
2023-04-17T06:25:57.761Z,101306.63
2023-04-17T06:28:26.092Z,101309.56
2023-04-17T06:30:55.181Z,101308.12
2023-04-17T06:33:25.376Z,101309.11
2023-04-17T06:35:54.768Z,101310.58
2023-04-17T06:38:38.494Z,101313.39
2023-04-17T06:41:06.756Z,101314.80
2023-04-17T06:43:36.038Z,101313.52
2023-04-17T06:46:13.040Z,101319.89
2023-04-17T06:48:41.323Z,101319.85
2023-04-17T06:51:09.687Z,101322.76
2023-04-17T06:53:38.021Z,101327.91
2023-04-17T06:56:06.707Z,101327.79
2023-04-17T06:58:42.334Z,101328.95
2023-04-17T07:01:11.368Z,101330.83
2023-04-17T07:03:43.106Z,101331.14
2023-04-17T07:06:11.594Z,101332.54
2023-04-17T07:08:39.997Z,101330.94
2023-04-17T07:11:08.424Z,101330.32
2023-04-17T07:13:36.561Z,101333.36
2023-04-17T07:16:06.386Z,101331.39
2023-04-17T07:18:35.059Z,101334.90
2023-04-17T07:21:03.319Z,101332.63
2023-04-17T07:23:31.486Z,101333.46
2023-04-17T07:25:59.999Z,101336.52
2023-04-17T07:28:28.052Z,101332.63
2023-04-17T07:30:58.228Z,101333.56
2023-04-17T07:33:26.671Z,101334.66
2023-04-17T07:35:54.843Z,101334.20
2023-04-17T07:38:24.098Z,101332.89
2023-04-17T07:40:52.165Z,101331.67
2023-04-17T07:43:20.271Z,101328.75
2023-04-17T07:47:44.740Z,101330.41
2023-04-17T07:50:12.968Z,101325.05
2023-04-17T07:52:41.162Z,101325.36
2023-04-17T07:55:09.701Z,101328.99
2023-04-17T07:57:42.759Z,101325.59
2023-04-17T08:00:13.767Z,101323.85
2023-04-17T08:02:43.457Z,101321.96
2023-04-17T08:05:11.745Z,101318.73
2023-04-17T08:07:41.240Z,101316.39
2023-04-17T08:10:09.742Z,101316.75
2023-04-17T08:12:37.964Z,101318.40
2023-04-17T08:15:06.577Z,101314.04
2023-04-17T08:17:35.581Z,101309.48
2023-04-17T08:20:11.980Z,101308.88
2023-04-17T08:22:41.187Z,101309.65
2023-04-17T08:25:09.856Z,101304.79
2023-04-17T08:27:41.777Z,101301.41
2023-04-17T08:30:13.736Z,101302.94
2023-04-17T08:32:45.579Z,101298.38
2023-04-17T08:35:14.350Z,101295.86
2023-04-17T08:37:42.985Z,101298.76
2023-04-17T08:40:12.569Z,101302.25
2023-04-17T08:42:44.544Z,101301.80
2023-04-17T08:45:13.360Z,101301.58
2023-04-17T08:47:42.359Z,101298.13
2023-04-17T08:50:15.122Z,101297.51
2023-04-17T08:52:52.891Z,101300.23
2023-04-17T08:55:22.668Z,101300.90
2023-04-17T08:57:57.140Z,101299.33
2023-04-17T09:00:26.645Z,101301.23
2023-04-17T09:02:56.158Z,101304.16
2023-04-17T09:05:24.926Z,101304.31
2023-04-17T09:08:12.588Z,101302.65
2023-04-17T09:10:45.400Z,101294.34
2023-04-17T09:13:14.866Z,101289.20
2023-04-17T09:15:44.122Z,101286.27
2023-04-17T09:18:23.042Z,101282.42
2023-04-17T09:20:51.485Z,101281.84
2023-04-17T09:23:20.007Z,101282.20
2023-04-17T09:25:50.564Z,101276.58
2023-04-17T09:28:19.730Z,101274.16
2023-04-17T09:30:47.877Z,101270.83
2023-04-17T09:33:17.057Z,101269.31
2023-04-17T09:35:45.143Z,101270.27
2023-04-17T09:38:13.150Z,101269.00
2023-04-17T09:40:42.222Z,101267.08
2023-04-17T09:43:10.673Z,101266.54
2023-04-17T09:45:41.712Z,101264.20
2023-04-17T09:48:13.444Z,101266.27
2023-04-17T09:50:41.790Z,101265.13
2023-04-17T09:53:10.035Z,101264.15
2023-04-17T09:55:38.956Z,101263.10
2023-04-17T09:58:08.029Z,101259.89
2023-04-17T10:00:37.057Z,101261.16
2023-04-17T10:03:05.633Z,101256.95
2023-04-17T10:05:34.688Z,101257.05
2023-04-17T10:08:02.954Z,101258.77
2023-04-17T10:10:33.861Z,101260.16
2023-04-17T10:13:03.627Z,101259.23
2023-04-17T10:15:31.773Z,101258.14
2023-04-17T10:18:19.892Z,101261.52
2023-04-17T10:20:49.520Z,101262.70
2023-04-17T10:23:28.921Z,101258.62
2023-04-17T10:26:25.166Z,101257.20
2023-04-17T10:28:54.096Z,101254.36
2023-04-17T10:31:23.716Z,101248.67
2023-04-17T10:33:53.363Z,101245.58
2023-04-17T10:36:51.099Z,101243.26
2023-04-17T10:39:19.277Z,101244.16
2023-04-17T10:42:02.822Z,101240.94
2023-04-17T10:44:40.512Z,101240.23
2023-04-17T10:49:51.100Z,101243.75
2023-04-17T10:52:34.852Z,101243.80
2023-04-17T10:55:09.954Z,101241.29
2023-04-17T10:58:02.237Z,101239.55
2023-04-17T11:00:37.993Z,101233.70
2023-04-17T11:03:06.746Z,101229.98
2023-04-17T11:05:36.072Z,101231.11
2023-04-17T11:08:04.917Z,101229.14
2023-04-17T11:10:35.747Z,101232.13
2023-04-17T11:13:03.863Z,101230.75
2023-04-17T11:15:34.381Z,101229.42
2023-04-17T11:18:03.461Z,101224.11
2023-04-17T11:20:33.021Z,101219.36
2023-04-17T11:23:02.228Z,101220.02
2023-04-17T11:25:31.795Z,101218.64
2023-04-17T11:28:04.041Z,101216.10
2023-04-17T11:30:37.514Z,101214.10
2023-04-17T11:33:07.763Z,101210.90
2023-04-17T11:35:38.360Z,101207.19
2023-04-17T11:38:14.551Z,101202.60
2023-04-17T11:40:47.196Z,101198.41
2023-04-17T11:43:15.412Z,101200.02
2023-04-17T11:45:44.928Z,101196.14
2023-04-17T11:48:14.080Z,101191.59
2023-04-17T11:50:43.575Z,101192.38
2023-04-17T11:53:17.865Z,101190.48
2023-04-17T11:55:46.053Z,101186.31
2023-04-17T11:58:14.410Z,101185.92
2023-04-17T12:00:43.174Z,101184.89
2023-04-17T12:03:31.211Z,101182.32
2023-04-17T12:06:00.833Z,101179.30
2023-04-17T12:08:29.838Z,101176.70
2023-04-17T12:10:57.968Z,101175.16
2023-04-17T12:13:26.397Z,101174.48
2023-04-17T12:15:54.681Z,101176.74
2023-04-17T12:18:22.687Z,101173.48
2023-04-17T12:20:51.159Z,101171.22
2023-04-17T12:23:19.345Z,101172.17
2023-04-17T12:25:47.367Z,101176.72
2023-04-17T12:28:15.902Z,101173.46
2023-04-17T12:30:44.161Z,101167.02
2023-04-17T12:33:12.148Z,101167.44
2023-04-17T12:35:40.459Z,101171.63
2023-04-17T12:38:09.158Z,101171.64
2023-04-17T12:40:39.383Z,101165.30
2023-04-17T12:43:08.490Z,101164.20
2023-04-17T12:45:37.262Z,101161.30
2023-04-17T12:48:06.848Z,101162.27
2023-04-17T12:50:42.532Z,101162.94
2023-04-17T12:53:11.809Z,101164.30
2023-04-17T12:55:44.321Z,101160.35
2023-04-17T12:58:13.209Z,101160.32
2023-04-17T13:00:43.622Z,101161.35
2023-04-17T13:03:12.617Z,101159.31
2023-04-17T13:05:41.136Z,101159.33
2023-04-17T13:08:15.211Z,101161.89
2023-04-17T13:10:43.307Z,101161.40
2023-04-17T13:13:12.028Z,101162.96
2023-04-17T13:15:40.103Z,101160.40
2023-04-17T13:18:10.573Z,101156.50
2023-04-17T13:20:39.003Z,101160.83
2023-04-17T13:23:07.311Z,101161.93
2023-04-17T13:25:35.618Z,101161.55
2023-04-17T13:28:03.967Z,101162.00
2023-04-17T13:30:32.660Z,101162.30
2023-04-17T13:33:00.778Z,101163.17
2023-04-17T13:35:29.052Z,101157.05
2023-04-17T13:38:01.075Z,101154.44
2023-04-17T13:40:30.169Z,101158.33
2023-04-17T13:42:58.601Z,101158.00
2023-04-17T13:45:26.652Z,101157.66
2023-04-17T13:47:54.832Z,101158.02
2023-04-17T13:50:23.004Z,101150.75
2023-04-17T13:52:51.283Z,101144.55
2023-04-17T13:55:19.551Z,101148.85
2023-04-17T13:57:48.082Z,101148.52
2023-04-17T14:00:18.407Z,101147.52
2023-04-17T14:02:46.598Z,101146.89
2023-04-17T14:05:14.893Z,101145.12
2023-04-17T14:07:44.236Z,101142.64
2023-04-17T14:10:12.449Z,101142.09
2023-04-17T14:12:41.099Z,101136.17
2023-04-17T14:15:10.029Z,101136.34
2023-04-17T14:17:42.920Z,101133.80
2023-04-17T14:20:12.155Z,101134.31
2023-04-17T14:22:40.526Z,101132.19
2023-04-17T14:25:08.929Z,101128.36
2023-04-17T14:27:37.772Z,101126.46
2023-04-17T14:30:06.989Z,101120.27
2023-04-17T14:32:35.509Z,101115.77
2023-04-17T14:35:03.835Z,101118.42
2023-04-17T14:37:32.208Z,101116.86
2023-04-17T14:40:00.409Z,101116.31
2023-04-17T14:42:28.690Z,101110.31
2023-04-17T14:44:56.772Z,101105.98
2023-04-17T14:47:25.313Z,101104.73
2023-04-17T14:49:53.466Z,101109.10
2023-04-17T14:52:21.469Z,101108.77
2023-04-17T14:54:49.461Z,101109.77
2023-04-17T14:57:17.520Z,101108.86
2023-04-17T14:59:45.599Z,101109.13
2023-04-17T15:02:13.693Z,101106.08
2023-04-17T15:04:42.482Z,101105.88
2023-04-17T15:07:10.620Z,101104.55
2023-04-17T15:09:38.596Z,101102.86
2023-04-17T15:12:08.094Z,101101.92
2023-04-17T15:14:36.086Z,101094.44
2023-04-17T15:17:06.923Z,101092.55
2023-04-17T15:19:35.269Z,101091.56
2023-04-17T15:22:03.321Z,101096.20
2023-04-17T15:24:32.095Z,101095.59
2023-04-17T15:27:00.934Z,101095.37
2023-04-17T15:29:29.211Z,101097.55
2023-04-17T15:31:57.435Z,101098.06
2023-04-17T15:34:25.674Z,101096.34
2023-04-17T15:36:53.732Z,101099.05
2023-04-17T15:39:21.827Z,101103.34
2023-04-17T15:41:50.743Z,101101.20
2023-04-17T15:44:18.832Z,101104.42
2023-04-17T15:46:46.842Z,101105.61
2023-04-17T15:49:15.050Z,101105.38
2023-04-17T15:51:43.086Z,101101.13
2023-04-17T15:54:12.176Z,101101.53
2023-04-17T15:56:40.747Z,101097.21
2023-04-17T15:59:08.836Z,101100.99
2023-04-17T16:01:37.355Z,101103.30
2023-04-17T16:04:06.025Z,101108.20
2023-04-17T16:06:35.322Z,101110.07
2023-04-17T16:09:04.048Z,101109.83
2023-04-17T16:11:32.368Z,101107.41
2023-04-17T16:14:00.423Z,101109.61
2023-04-17T16:16:29.505Z,101108.60
2023-04-17T16:18:57.994Z,101110.14
2023-04-17T16:21:26.907Z,101114.02
2023-04-17T16:23:55.502Z,101117.29
2023-04-17T16:26:23.568Z,101116.55
2023-04-17T16:28:51.577Z,101116.32
2023-04-17T16:31:21.715Z,101119.70
2023-04-17T16:33:49.801Z,101119.73
2023-04-17T16:36:17.853Z,101118.79
2023-04-17T16:38:45.957Z,101114.42
2023-04-17T16:41:14.165Z,101119.00
2023-04-17T16:43:42.740Z,101118.06
2023-04-17T16:46:22.138Z,101116.69
2023-04-17T16:48:51.170Z,101115.42
2023-04-17T16:51:23.799Z,101120.96
2023-04-17T16:53:51.988Z,101119.30
2023-04-17T16:56:20.229Z,101115.05
2023-04-17T16:58:48.289Z,101114.39
2023-04-17T17:01:16.355Z,101117.48
2023-04-17T17:03:45.253Z,101118.30
2023-04-17T17:06:13.526Z,101121.27
2023-04-17T17:08:46.655Z,101120.12
2023-04-17T17:11:15.117Z,101120.88
2023-04-17T17:13:49.878Z,101118.39
2023-04-17T17:16:18.979Z,101117.45
2023-04-17T17:18:47.907Z,101114.58
2023-04-17T17:21:16.215Z,101114.71
2023-04-17T17:23:44.350Z,101119.05
2023-04-17T17:26:12.514Z,101119.26
2023-04-17T17:28:40.624Z,101120.38
2023-04-17T17:31:08.688Z,101120.67
2023-04-17T17:33:37.442Z,101122.20
2023-04-17T17:36:06.335Z,101120.17
2023-04-17T17:38:34.744Z,101119.34
2023-04-17T17:41:04.363Z,101120.84
2023-04-17T17:43:32.934Z,101120.48
2023-04-17T17:46:01.350Z,101126.58
2023-04-17T17:48:29.653Z,101126.28
2023-04-17T17:50:57.942Z,101123.70
2023-04-17T17:53:27.297Z,101126.26
2023-04-17T17:55:55.806Z,101126.52
2023-04-17T17:58:24.165Z,101127.94
2023-04-17T18:00:52.477Z,101127.75
2023-04-17T18:03:21.160Z,101124.98
2023-04-17T18:05:49.937Z,101124.27
2023-04-17T18:08:17.984Z,101122.19
2023-04-17T18:10:46.213Z,101122.05
2023-04-17T18:13:14.493Z,101121.17
2023-04-17T18:15:42.604Z,101119.83
2023-04-17T18:18:10.650Z,101120.16
2023-04-17T18:20:39.482Z,101119.00
2023-04-17T18:23:07.569Z,101119.66
2023-04-17T18:25:35.918Z,101118.61
2023-04-17T18:28:04.468Z,101116.34
2023-04-17T18:30:32.800Z,101114.36
2023-04-17T18:33:00.952Z,101110.41
2023-04-17T18:35:29.492Z,101110.46
2023-04-17T18:37:57.568Z,101105.83
2023-04-17T18:40:25.858Z,101104.79
2023-04-17T18:42:54.049Z,101108.20
2023-04-17T18:45:22.058Z,101104.86
2023-04-17T18:47:50.281Z,101104.38
2023-04-17T18:50:18.454Z,101103.48
2023-04-17T18:52:50.277Z,101101.92
2023-04-17T18:55:19.061Z,101099.03
2023-04-17T18:57:47.202Z,101097.04
2023-04-17T19:00:15.517Z,101096.66
2023-04-17T19:02:44.418Z,101093.26
2023-04-17T19:05:12.688Z,101087.75
2023-04-17T19:07:41.445Z,101086.73
2023-04-17T19:10:09.956Z,101082.64
2023-04-17T19:12:38.222Z,101081.67
2023-04-17T19:15:07.004Z,101081.92
2023-04-17T19:17:35.482Z,101078.56
2023-04-17T19:20:04.354Z,101080.95
2023-04-17T19:22:32.724Z,101079.52
2023-04-17T19:25:00.726Z,101079.98
2023-04-17T19:27:29.047Z,101075.64
2023-04-17T19:29:57.085Z,101077.86
2023-04-17T19:32:25.163Z,101076.87
2023-04-17T19:34:53.427Z,101075.86
2023-04-17T19:37:21.542Z,101073.45
2023-04-17T19:39:49.729Z,101073.07
2023-04-17T19:42:17.834Z,101066.89
2023-04-17T19:44:46.386Z,101069.63
2023-04-17T19:47:14.448Z,101067.81
2023-04-17T19:49:42.503Z,101067.55
2023-04-17T19:52:11.530Z,101069.05
2023-04-17T19:54:39.629Z,101066.30
2023-04-17T19:57:07.694Z,101066.52
2023-04-17T19:59:35.899Z,101066.10
2023-04-17T20:02:04.012Z,101063.39
2023-04-17T20:15:54.909Z,101054.09
2023-04-17T20:18:23.524Z,101047.50
2023-04-17T20:20:51.703Z,101040.91
2023-04-17T20:23:20.030Z,101042.17
2023-04-17T20:25:48.290Z,101041.14
2023-04-17T20:28:16.450Z,101038.83
2023-04-17T20:30:44.617Z,101038.58
2023-04-17T20:33:12.859Z,101038.15
2023-04-17T20:35:42.313Z,101035.82
2023-04-17T20:38:10.457Z,101033.27
2023-04-17T20:40:38.668Z,101032.73
2023-04-17T20:43:07.150Z,101031.58
2023-04-17T20:45:35.370Z,101027.53
2023-04-17T20:48:03.532Z,101024.22
2023-04-17T20:50:31.894Z,101021.90
2023-04-17T20:53:00.206Z,101023.92
2023-04-17T20:55:28.329Z,101023.29
2023-04-17T20:57:56.504Z,101020.72
2023-04-17T21:00:24.758Z,101025.10
2023-04-17T21:02:52.989Z,101020.76
2023-04-17T21:05:21.551Z,101016.95
2023-04-17T21:07:51.565Z,101014.77
2023-04-17T21:10:20.449Z,101014.98
2023-04-17T21:12:48.507Z,101016.42
2023-04-17T21:15:16.578Z,101009.36
2023-04-17T21:17:47.746Z,101006.87
2023-04-17T21:20:16.096Z,101006.05
2023-04-17T21:22:44.355Z,101007.23
2023-04-17T21:25:12.650Z,101002.58
2023-04-17T21:27:41.839Z,101002.13
2023-04-17T21:30:11.061Z,100998.71
2023-04-17T21:32:39.592Z,101000.67
2023-04-17T21:35:08.276Z,100999.80
2023-04-17T21:37:37.159Z,100995.02
2023-04-17T21:40:05.777Z,100994.17
2023-04-17T21:42:34.978Z,100992.97
2023-04-17T21:45:03.146Z,100996.55
2023-04-17T21:47:31.271Z,100995.98
2023-04-17T21:50:00.411Z,100997.11
2023-04-17T21:52:28.884Z,100995.10
2023-04-17T21:55:03.017Z,100994.05
2023-04-17T21:57:32.758Z,100994.91
2023-04-17T22:00:01.917Z,100991.98
2023-04-17T22:02:30.185Z,100992.04
2023-04-17T22:04:58.303Z,100989.28
2023-04-17T22:07:26.376Z,100989.74
2023-04-17T22:09:54.406Z,100985.54
2023-04-17T22:12:22.511Z,100985.14
2023-04-17T22:14:50.541Z,100986.63
2023-04-17T22:17:18.577Z,100986.51
2023-04-17T22:19:46.663Z,100981.04
2023-04-17T22:22:14.926Z,100982.04
2023-04-17T22:24:43.187Z,100982.60
2023-04-17T22:27:11.433Z,100983.73
2023-04-17T22:29:39.653Z,100981.02
2023-04-17T22:32:07.801Z,100977.17
2023-04-17T22:34:35.978Z,100976.70
2023-04-17T22:37:04.086Z,100977.04
2023-04-17T22:39:33.462Z,100972.63
2023-04-17T22:42:01.559Z,100971.84
2023-04-17T22:44:29.725Z,100970.35
2023-04-17T22:46:57.738Z,100967.11
2023-04-17T22:49:25.858Z,100967.49
2023-04-17T22:51:53.807Z,100969.51
2023-04-17T22:54:23.312Z,100968.35
2023-04-17T22:56:51.574Z,100966.41
2023-04-17T22:59:19.723Z,100965.36
2023-04-17T23:01:47.894Z,100961.25
2023-04-17T23:04:16.218Z,100959.12
2023-04-17T23:06:44.450Z,100958.71
2023-04-17T23:09:12.808Z,100959.55
2023-04-17T23:11:40.996Z,100957.65
2023-04-17T23:14:11.313Z,100956.11
2023-04-17T23:16:39.589Z,100959.01
2023-04-17T23:19:07.660Z,100963.39
2023-04-17T23:21:36.868Z,100959.98
2023-04-17T23:24:04.897Z,100956.60
2023-04-17T23:26:33.268Z,100958.27
2023-04-17T23:29:01.280Z,100959.52
2023-04-17T23:31:29.503Z,100958.33
2023-04-17T23:33:57.510Z,100955.55
2023-04-17T23:36:25.942Z,100954.81
2023-04-17T23:38:54.061Z,100957.98
2023-04-17T23:41:22.240Z,100960.14
2023-04-17T23:43:51.421Z,100957.53
2023-04-17T23:46:19.494Z,100955.14
2023-04-17T23:48:47.704Z,100952.59
2023-04-17T23:51:15.760Z,100951.19
2023-04-17T23:53:43.995Z,100949.77
2023-04-17T23:56:12.212Z,100947.05
2023-04-17T23:58:40.378Z,100945.11
